Houari Boumediene Airport

DAAG · Algiers, 阿尔及利亚

罗盘
风向 的 风向 230° 阿尔及尔胡阿里·布迈丁机场 5/23
风: 7 kt, 3 beaufort

7 kt

改变
0 1.000 2.000 3.000 4.000 5.000
SCT 2.300 ft
METAR DAAG 292130Z 23007KT 9999 SCT023 12/08 Q1018

METAR 阿尔及尔胡阿里·布迈丁机场 - DAAG/ALG

阿尔及尔胡阿里·布迈丁机场是,阿尔及利亚中的大型机场。 该机场有2条跑道: 5/23 和 9/27. 该领域的国际民航组织标志是DAAG 它的国际航空运输协会代码是ALG.

这份报告是针对2022年11月29日 22:30, 当地时间在阿尔及尔胡阿里·布迈丁机场进行的。

机场观察

风向为230°,速度为7 kt。

可见度为10 km 或者更多。

有疏云,零星散落的云朵在2.300 ft的高度。 没有观察到天花板。

温度和风寒是12 °C。 露点为8 °C,相对湿度为77%。 海平面上的气压为1018 hPa (QNH)。

白天

今天,太阳从07:39升起,在17:31降落。 这适用于阿尔及尔胡阿里·布迈丁机场,世界夏令时可能有所不同。 当地时间与世界标准时间之间的时差为+1 小时。 当前,没有夏令时有效。

公司介绍

我们没有关于这个机场的公司信息。

体会

到Vliegles.nl去找飞行课程,跳伞和其他飞行体验。 浏览页面,了解阿尔及尔胡阿里·布迈丁机场附近所有可用的活动。 你也可以使用搜索功能来寻找你所在地附近的特定飞行课程、跳伞或其他飞行体验。

跑道

Id 标题 侧风 逆风 侧风 %
5/23 052°-232° 7 kt 3 %
9/27 091°-271° 5 kt 5 kt 66 %

逆风成分最大的方向会被突出显示,并用于横风计算。 这并不一定意味着这个方向在使用。

乌云

2.300 ft SCT 疏云,零星散落的云朵

温度 & 天气

温度 12 °C
露点 8 °C
相对湿度 77%
Kp-index 3 (0-9)

白天

日出
07:39 (8:32)
中午
12:35
日落
17:31

小工具

你想在你的网站上有一个关于阿尔及尔胡阿里·布迈丁机场的当前航空天气(METAR)的小部件吗?

显示HTML代码

我们和第三方通过cookies跟踪您在我们网站上的互联网行为。如果你继续,我们认为你同意我们的饼干政策